Wetterdaten: aktuell Sonntag, 25.07.2021 16:35
Datum Zeit Temp. Aussen Feuchte A. Sonne Luftdruck Regen Richtung Richtung Sonnen-Zeit Windben
25.07.2021 16:35 25,6 C 35 % 99 % 1010,4 hPa 0,0 l/m SW 230 5 min 4,3 km/h (1 Bft)
25.07.2021 16:30 25,8 C 33 % 99 % 1010,4 hPa 0,0 l/m O-SO 120 5 min 4,3 km/h (1 Bft)
25.07.2021 16:25 26,3 C 32 % 99 % 1010,3 hPa 0,0 l/m S 175 5 min 5,2 km/h (1 Bft)
25.07.2021 16:20 26,5 C 32 % 99 % 1010,3 hPa 0,0 l/m O-SO 114 5 min 14,7 km/h (3 Bft)
25.07.2021 16:15 26,5 C 32 % 99 % 1010,3 hPa 0,0 l/m W 278 5 min 0,0 km/h (0 Bft)
25.07.2021 16:10 26,6 C 35 % 99 % 1010,3 hPa 0,0 l/m SW 233 5 min 5,2 km/h (1 Bft)
25.07.2021 16:05 26,7 C 35 % 99 % 1010,3 hPa 0,0 l/m S-SW 197 5 min 0,0 km/h (0 Bft)
25.07.2021 16:00 26,9 C 35 % 99 % 1010,3 hPa 0,0 l/m S-SO 148 5 min 0,0 km/h (0 Bft)
25.07.2021 15:55 26,6 C 36 % 99 % 1010,3 hPa 0,0 l/m S-SW 206 5 min 0,0 km/h (0 Bft)
25.07.2021 15:50 26,4 C 36 % 99 % 1010,3 hPa 0,0 l/m W-SW 257 5 min 0,0 km/h (0 Bft)
25.07.2021 15:45 26,0 C 35 % 98 % 1010,4 hPa 0,0 l/m S 173 5 min 6,9 km/h (2 Bft)
25.07.2021 15:40 25,6 C 36 % 99 % 1010,4 hPa 0,0 l/m SO 143 5 min 6,9 km/h (2 Bft)
25.07.2021 15:35 25,4 C 36 % 99 % 1010,4 hPa 0,0 l/m W-SW 248 5 min 4,3 km/h (1 Bft)
25.07.2021 15:30 25,3 C 36 % 99 % 1010,4 hPa 0,0 l/m S-SO 152 5 min 0,0 km/h (0 Bft)
25.07.2021 15:25 25,2 C 37 % 99 % 1010,5 hPa 0,0 l/m SO 127 5 min 0,0 km/h (0 Bft)
25.07.2021 15:20 24,9 C 38 % 99 % 1010,5 hPa 0,0 l/m N 10 5 min 4,3 km/h (1 Bft)
25.07.2021 15:15 24,5 C 39 % 99 % 1011,5 hPa 0,0 l/m W-SW 258 5 min 6,0 km/h (2 Bft)
25.07.2021 15:10 24,2 C 38 % 98 % 1011,6 hPa 0,0 l/m S-SW 205 5 min 10,4 km/h (2 Bft)
25.07.2021 15:05 24,1 C 38 % 98 % 1011,6 hPa 0,0 l/m SW 219 5 min 0,0 km/h (0 Bft)
25.07.2021 15:00 23,9 C 39 % 99 % 1011,6 hPa 0,0 l/m SW 220 5 min 0,0 km/h (0 Bft)
25.07.2021 14:55 23,9 C 39 % 99 % 1010,6 hPa 0,0 l/m SW 224 5 min 0,0 km/h (0 Bft)
25.07.2021 14:50 23,8 C 38 % 99 % 1010,6 hPa 0,0 l/m S 171 5 min 6,9 km/h (2 Bft)
25.07.2021 14:45 24,1 C 38 % 99 % 1010,6 hPa 0,0 l/m S 172 5 min 0,0 km/h (0 Bft)
25.07.2021 14:40 24,0 C 39 % 99 % 1010,6 hPa 0,0 l/m SO 126 5 min 0,0 km/h (0 Bft)
25.07.2021 14:35 23,9 C 40 % 98 % 1010,6 hPa 0,0 l/m S-SO 150 5 min 0,0 km/h (0 Bft)
25.07.2021 14:30 23,9 C 42 % 98 % 1010,6 hPa 0,0 l/m SO 141 5 min 0,0 km/h (0 Bft)
25.07.2021 14:25 23,8 C 43 % 98 % 1010,6 hPa 0,0 l/m S-SO 153 5 min 0,0 km/h (0 Bft)
25.07.2021 14:20 23,6 C 46 % 98 % 1010,6 hPa 0,0 l/m S 170 5 min 0,0 km/h (0 Bft)
25.07.2021 14:15 23,4 C 47 % 98 % 1010,6 hPa 0,0 l/m SW 230 5 min 10,4 km/h (2 Bft)
25.07.2021 14:10 23,6 C 42 % 98 % 1011,6 hPa 0,0 l/m S-SO 159 5 min 13,8 km/h (3 Bft)
25.07.2021 14:05 23,9 C 43 % 99 % 1011,6 hPa 0,0 l/m SO 131 5 min 4,3 km/h (1 Bft)
25.07.2021 14:00 24,2 C 40 % 99 % 1011,6 hPa 0,0 l/m S-SW 205 5 min 0,0 km/h (0 Bft)
25.07.2021 13:55 24,4 C 38 % 99 % 1011,6 hPa 0,0 l/m S 191 5 min 5,2 km/h (1 Bft)
25.07.2021 13:50 25,4 C 36 % 99 % 1011,5 hPa 0,0 l/m S 171 5 min 5,2 km/h (1 Bft)
25.07.2021 13:45 25,4 C 36 % 99 % 1011,5 hPa 0,0 l/m S 183 5 min 11,2 km/h (2 Bft)
25.07.2021 13:40 25,4 C 36 % 99 % 1010,4 hPa 0,0 l/m SO 146 5 min 9,5 km/h (2 Bft)
25.07.2021 13:35 25,8 C 36 % 99 % 1010,4 hPa 0,0 l/m SW 219 5 min 11,2 km/h (2 Bft)
25.07.2021 13:30 25,9 C 36 % 99 % 1010,4 hPa 0,0 l/m SO 140 5 min 0,0 km/h (0 Bft)
25.07.2021 13:25 25,9 C 36 % 99 % 1010,4 hPa 0,0 l/m S 180 5 min 0,0 km/h (0 Bft)
25.07.2021 13:20 26,1 C 35 % 99 % 1010,4 hPa 0,0 l/m S-SO 153 5 min 0,0 km/h (0 Bft)
25.07.2021 13:15 26,4 C 35 % 99 % 1010,3 hPa 0,0 l/m S-SW 194 5 min 0,0 km/h (0 Bft)
25.07.2021 13:10 26,8 C 35 % 99 % 1010,3 hPa 0,0 l/m S 181 5 min 0,0 km/h (0 Bft)
25.07.2021 13:05 26,8 C 35 % 99 % 1010,3 hPa 0,0 l/m W-SW 245 5 min 0,0 km/h (0 Bft)
25.07.2021 13:00 26,4 C 35 % 99 % 1010,3 hPa 0,0 l/m S 169 5 min 0,0 km/h (0 Bft)
25.07.2021 12:55 26,5 C 35 % 99 % 1011,4 hPa 0,0 l/m S 188 5 min 0,0 km/h (0 Bft)
25.07.2021 12:50 26,4 C 35 % 99 % 1011,4 hPa 0,0 l/m S-SO 150 5 min 0,0 km/h (0 Bft)
25.07.2021 12:45 26,4 C 35 % 99 % 1011,4 hPa 0,0 l/m S 184 5 min 6,0 km/h (2 Bft)
25.07.2021 12:40 26,4 C 35 % 99 % 1011,4 hPa 0,0 l/m SO 130 5 min 0,0 km/h (0 Bft)
25.07.2021 12:35 26,5 C 35 % 99 % 1011,4 hPa 0,0 l/m SO 139 5 min 0,0 km/h (0 Bft)
25.07.2021 12:30 26,7 C 35 % 99 % 1011,3 hPa 0,0 l/m S-SW 196 5 min 0,0 km/h (0 Bft)
25.07.2021 12:25 26,7 C 35 % 99 % 1010,3 hPa 0,0 l/m S 186 5 min 0,0 km/h (0 Bft)
25.07.2021 12:20 26,7 C 35 % 99 % 1010,3 hPa 0,0 l/m SO 145 5 min 0,0 km/h (0 Bft)
25.07.2021 12:15 26,4 C 35 % 99 % 1010,3 hPa 0,0 l/m SO 128 5 min 0,0 km/h (0 Bft)
25.07.2021 12:10 26,4 C 35 % 99 % 1010,3 hPa 0,0 l/m S 184 5 min 0,0 km/h (0 Bft)
25.07.2021 12:05 25,9 C 35 % 99 % 1010,4 hPa 0,0 l/m S-SO 149 5 min 0,0 km/h (0 Bft)
25.07.2021 12:00 25,8 C 35 % 99 % 1010,4 hPa 0,0 l/m SO 130 5 min 0,0 km/h (0 Bft)
25.07.2021 11:55 25,8 C 35 % 99 % 1010,4 hPa 0,0 l/m SO 146 5 min 0,0 km/h (0 Bft)
25.07.2021 11:50 25,8 C 36 % 99 % 1010,4 hPa 0,0 l/m SO 129 5 min 0,0 km/h (0 Bft)
25.07.2021 11:45 25,9 C 36 % 100 % 1010,4 hPa 0,0 l/m O-SO 110 5 min 0,0 km/h (0 Bft)
25.07.2021 11:40 25,8 C 36 % 99 % 1010,4 hPa 0,0 l/m SO 144 5 min 0,0 km/h (0 Bft)
25.07.2021 11:35 25,6 C 36 % 99 % 1010,4 hPa 0,0 l/m S-SO 155 5 min 0,0 km/h (0 Bft)
25.07.2021 11:30 25,4 C 36 % 99 % 1010,4 hPa 0,0 l/m S-SW 202 5 min 0,0 km/h (0 Bft)
25.07.2021 11:25 25,3 C 36 % 99 % 1010,4 hPa 0,0 l/m O-SO 116 5 min 0,0 km/h (0 Bft)
25.07.2021 11:20 25,7 C 36 % 99 % 1010,4 hPa 0,0 l/m S-SO 148 5 min 0,0 km/h (0 Bft)
25.07.2021 11:15 25,8 C 36 % 100 % 1010,4 hPa 0,0 l/m SO 146 5 min 0,0 km/h (0 Bft)
25.07.2021 11:10 25,7 C 36 % 100 % 1010,4 hPa 0,0 l/m SO 146 5 min 0,0 km/h (0 Bft)
25.07.2021 11:05 25,5 C 36 % 99 % 1010,4 hPa 0,0 l/m SO 131 5 min 0,0 km/h (0 Bft)
25.07.2021 11:00 25,2 C 36 % 99 % 1010,5 hPa 0,0 l/m O 82 5 min 0,0 km/h (0 Bft)
25.07.2021 10:55 25,1 C 36 % 99 % 1010,5 hPa 0,0 l/m S-SW 200 5 min 0,0 km/h (0 Bft)
25.07.2021 10:50 25,0 C 36 % 99 % 1010,5 hPa 0,0 l/m SO 146 5 min 0,0 km/h (0 Bft)
25.07.2021 10:45 25,1 C 36 % 99 % 1010,5 hPa 0,0 l/m O-NO 65 5 min 0,0 km/h (0 Bft)
25.07.2021 10:40 25,3 C 37 % 100 % 1010,4 hPa 0,0 l/m SO 133 5 min 0,0 km/h (0 Bft)
25.07.2021 10:35 25,0 C 38 % 98 % 1010,5 hPa 0,0 l/m N-NO 28 5 min 0,0 km/h (0 Bft)
25.07.2021 10:30 24,3 C 40 % 99 % 1010,5 hPa 0,0 l/m O-SO 106 5 min 4,3 km/h (1 Bft)
25.07.2021 10:25 24,1 C 47 % 98 % 1010,6 hPa 0,0 l/m N 357 5 min 0,0 km/h (0 Bft)
25.07.2021 10:20 23,6 C 48 % 99 % 1010,6 hPa 0,0 l/m S-SO 159 5 min 0,0 km/h (0 Bft)
25.07.2021 10:15 23,3 C 51 % 99 % 1010,6 hPa 0,0 l/m S-SO 159 5 min 0,0 km/h (0 Bft)
25.07.2021 10:10 23,1 C 63 % 98 % 1010,7 hPa 0,0 l/m O-NO 68 5 min 0,0 km/h (0 Bft)
25.07.2021 10:05 23,4 C 69 % 99 % 1010,6 hPa 0,0 l/m O-NO 68 5 min 0,0 km/h (0 Bft)
25.07.2021 10:00 23,7 C 71 % 99 % 1010,6 hPa 0,0 l/m O 88 5 min 0,0 km/h (0 Bft)
25.07.2021 09:55 23,6 C 71 % 99 % 1010,6 hPa 0,0 l/m NW 315 5 min 0,0 km/h (0 Bft)
25.07.2021 09:50 23,2 C 82 % 99 % 1010,6 hPa 0,0 l/m SO 130 5 min 0,0 km/h (0 Bft)
25.07.2021 09:45 23,0 C 89 % 99 % 1010,7 hPa 0,0 l/m O-NO 68 5 min 0,0 km/h (0 Bft)
25.07.2021 09:40 22,7 C 94 % 98 % 1010,7 hPa 0,0 l/m S-SO 154 5 min 0,0 km/h (0 Bft)
25.07.2021 09:35 22,3 C 96 % 98 % 1010,7 hPa 0,0 l/m S-SO 149 5 min 0,0 km/h (0 Bft)
25.07.2021 09:30 21,8 C 97 % 99 % 1010,8 hPa 0,0 l/m S-SO 149 5 min 0,0 km/h (0 Bft)
25.07.2021 09:25 21,2 C 97 % 98 % 1010,8 hPa 0,0 l/m S-SO 149 5 min 0,0 km/h (0 Bft)
25.07.2021 09:20 20,8 C 98 % 98 % 1010,9 hPa 0,0 l/m S-SO 149 5 min 0,0 km/h (0 Bft)
25.07.2021 09:15 20,5 C 98 % 99 % 1010,9 hPa 0,0 l/m S-SO 149 5 min 0,0 km/h (0 Bft)
25.07.2021 09:10 20,4 C 98 % 99 % 1012,0 hPa 0,0 l/m S-SO 149 5 min 0,0 km/h (0 Bft)
25.07.2021 09:05 20,3 C 98 % 99 % 1012,0 hPa 0,0 l/m S-SO 149 5 min 0,0 km/h (0 Bft)
25.07.2021 09:00 20,3 C 98 % 99 % 1012,0 hPa 0,0 l/m S-SO 149 5 min 0,0 km/h (0 Bft)
25.07.2021 08:55 20,3 C 99 % 98 % 1012,0 hPa 0,0 l/m S-SO 149 5 min 0,0 km/h (0 Bft)
25.07.2021 08:50 20,1 C 99 % 99 % 1012,0 hPa 0,0 l/m S-SO 149 5 min 0,0 km/h (0 Bft)
25.07.2021 08:45 19,8 C 99 % 98 % 1012,0 hPa 0,0 l/m S-SO 149 5 min 0,0 km/h (0 Bft)
25.07.2021 08:40 19,8 C 99 % 98 % 1012,0 hPa 0,0 l/m S-SO 149 5 min 0,0 km/h (0 Bft)
25.07.2021 08:35 19,7 C 99 % 97 % 1012,0 hPa 0,0 l/m S-SO 149 5 min 0,0 km/h (0 Bft)
25.07.2021 08:30 19,6 C 99 % 97 % 1012,0 hPa 0,0 l/m S-SO 149 5 min 0,0 km/h (0 Bft)
25.07.2021 08:25 19,5 C 99 % 98 % 1012,0 hPa 0,0 l/m S-SO 149 5 min 0,0 km/h (0 Bft)
25.07.2021 08:20 19,5 C 99 % 96 % 1012,0 hPa 0,0 l/m S-SO 149 5 min 0,0 km/h (0 Bft)
25.07.2021 08:15 19,5 C 99 % 94 % 1012,0 hPa 0,0 l/m S-SO 149 5 min 0,0 km/h (0 Bft)
25.07.2021 08:10 19,5 C 99 % 95 % 1012,0 hPa 0,0 l/m S-SO 149 5 min 0,0 km/h (0 Bft)
25.07.2021 08:05 19,4 C 99 % 98 % 1012,1 hPa 0,0 l/m S-SO 149 5 min 0,0 km/h (0 Bft)
25.07.2021 08:00 19,2 C 99 % 98 % 1012,1 hPa 0,0 l/m SO 140 5 min 0,0 km/h (0 Bft)
25.07.2021 07:55 18,9 C 100 % 98 % 1011,1 hPa 0,0 l/m SO 146 5 min 0,0 km/h (0 Bft)
25.07.2021 07:50 18,7 C 100 % 98 % 1011,1 hPa 0,0 l/m SO 133 5 min 0,0 km/h (0 Bft)
25.07.2021 07:45 18,4 C 99 % 98 % 1011,1 hPa 0,0 l/m SO 133 5 min 0,0 km/h (0 Bft)
25.07.2021 07:40 18,2 C 99 % 97 % 1012,2 hPa 0,0 l/m SO 133 5 min 0,0 km/h (0 Bft)
25.07.2021 07:35 18,2 C 99 % 94 % 1012,2 hPa 0,0 l/m SO 133 5 min 0,0 km/h (0 Bft)
25.07.2021 07:30 18,2 C 99 % 92 % 1012,2 hPa 0,0 l/m SO 124 5 min 0,0 km/h (0 Bft)
25.07.2021 07:25 18,2 C 99 % 91 % 1011,1 hPa 0,0 l/m SO 129 5 min 0,0 km/h (0 Bft)
25.07.2021 07:20 18,2 C 99 % 93 % 1011,1 hPa 0,0 l/m SO 142 5 min 0,0 km/h (0 Bft)
25.07.2021 07:15 18,2 C 99 % 94 % 1011,1 hPa 0,0 l/m SO 134 5 min 0,0 km/h (0 Bft)
25.07.2021 07:10 17,9 C 99 % 98 % 1011,2 hPa 0,0 l/m NO 50 5 min 0,0 km/h (0 Bft)
25.07.2021 07:05 17,6 C 99 % 98 % 1011,2 hPa 0,0 l/m NO 50 5 min 0,0 km/h (0 Bft)
25.07.2021 07:00 17,5 C 99 % 97 % 1011,2 hPa 0,0 l/m NO 50 5 min 0,0 km/h (0 Bft)
25.07.2021 06:55 17,5 C 99 % 91 % 1011,2 hPa 0,0 l/m O 87 5 min 0,0 km/h (0 Bft)
25.07.2021 06:50 17,4 C 99 % 82 % 1011,2 hPa 0,0 l/m S-SO 152 5 min 0,0 km/h (0 Bft)
25.07.2021 06:45 17,2 C 99 % 88 % 1011,2 hPa 0,0 l/m S-SO 152 5 min 0,0 km/h (0 Bft)
25.07.2021 06:40 17,1 C 99 % 89 % 1011,3 hPa 0,0 l/m S-SO 152 5 min 0,0 km/h (0 Bft)
25.07.2021 06:35 17,0 C 99 % 87 % 1011,3 hPa 0,0 l/m S-SO 152 5 min 0,0 km/h (0 Bft)
25.07.2021 06:30 16,9 C 99 % 86 % 1011,3 hPa 0,0 l/m S-SO 152 5 min 0,0 km/h (0 Bft)
25.07.2021 06:25 16,8 C 99 % 87 % 1011,3 hPa 0,0 l/m NW 319 5 min 0,0 km/h (0 Bft)
25.07.2021 06:20 16,7 C 99 % 87 % 1011,3 hPa 0,0 l/m NW 320 5 min 0,0 km/h (0 Bft)
25.07.2021 06:15 16,6 C 99 % 84 % 1011,3 hPa 0,0 l/m NW 320 5 min 0,0 km/h (0 Bft)
25.07.2021 06:10 16,6 C 99 % 79 % 1011,3 hPa 0,0 l/m NW 320 5 min 0,0 km/h (0 Bft)
25.07.2021 06:05 16,5 C 99 % 76 % 1011,3 hPa 0,0 l/m NW 320 5 min 0,0 km/h (0 Bft)
25.07.2021 06:00 16,5 C 99 % 72 % 1011,3 hPa 0,0 l/m NW 318 5 min 0,0 km/h (0 Bft)
25.07.2021 05:55 16,7 C 99 % 68 % 1011,3 hPa 0,0 l/m NW 318 0 min 0,0 km/h (0 Bft)
25.07.2021 05:50 16,8 C 99 % 65 % 1011,3 hPa 0,0 l/m N-NO 28 0 min 0,0 km/h (0 Bft)
25.07.2021 05:45 16,8 C 99 % 62 % 1011,3 hPa 0,0 l/m N-NO 28 0 min 0,0 km/h (0 Bft)
25.07.2021 05:40 16,8 C 99 % 60 % 1011,3 hPa 0,0 l/m N-NO 28 0 min 0,0 km/h (0 Bft)
25.07.2021 05:35 16,8 C 99 % 58 % 1011,3 hPa 0,0 l/m N-NO 28 0 min 0,0 km/h (0 Bft)
25.07.2021 05:30 16,8 C 99 % 56 % 1011,3 hPa 0,0 l/m N-NO 28 0 min 0,0 km/h (0 Bft)
25.07.2021 05:25 16,8 C 99 % 53 % 1011,3 hPa 0,0 l/m N-NO 28 0 min 0,0 km/h (0 Bft)
25.07.2021 05:20 16,7 C 99 % 52 % 1011,3 hPa 0,0 l/m N-NO 28 0 min 0,0 km/h (0 Bft)
25.07.2021 05:15 16,6 C 99 % 51 % 1011,3 hPa 0,0 l/m N-NO 28 0 min 0,0 km/h (0 Bft)
25.07.2021 05:10 16,6 C 99 % 51 % 1011,3 hPa 0,0 l/m N 6 0 min 0,0 km/h (0 Bft)
25.07.2021 05:05 16,7 C 99 % 51 % 1011,3 hPa 0,0 l/m N 5 0 min 0,0 km/h (0 Bft)
25.07.2021 05:00 16,7 C 99 % 51 % 1011,3 hPa 0,0 l/m NO 44 0 min 0,0 km/h (0 Bft)
25.07.2021 04:55 16,7 C 99 % 50 % 1011,3 hPa 0,0 l/m NO 44 0 min 0,0 km/h (0 Bft)
25.07.2021 04:50 16,6 C 99 % 50 % 1011,3 hPa 0,0 l/m NO 44 0 min 0,0 km/h (0 Bft)
25.07.2021 04:45 16,7 C 99 % 50 % 1011,3 hPa 0,0 l/m NO 44 0 min 0,0 km/h (0 Bft)
25.07.2021 04:40 16,8 C 99 % 50 % 1011,3 hPa 0,0 l/m NO 44 0 min 0,0 km/h (0 Bft)
25.07.2021 04:35 17,0 C 99 % 50 % 1011,3 hPa 0,0 l/m NO 43 0 min 0,0 km/h (0 Bft)
25.07.2021 04:30 17,1 C 99 % 50 % 1011,3 hPa 0,0 l/m NO 43 0 min 0,0 km/h (0 Bft)
25.07.2021 04:25 17,1 C 99 % 49 % 1011,3 hPa 0,0 l/m S-SO 148 0 min 0,0 km/h (0 Bft)
25.07.2021 04:20 17,2 C 99 % 49 % 1011,2 hPa 0,0 l/m S-SO 151 0 min 0,0 km/h (0 Bft)
25.07.2021 04:15 17,2 C 99 % 49 % 1011,2 hPa 0,0 l/m S-SO 151 0 min 0,0 km/h (0 Bft)
25.07.2021 04:10 17,2 C 99 % 49 % 1011,2 hPa 0,0 l/m S-SO 151 0 min 0,0 km/h (0 Bft)
25.07.2021 04:05 17,2 C 99 % 49 % 1011,2 hPa 0,0 l/m S-SO 152 0 min 0,0 km/h (0 Bft)
25.07.2021 04:00 17,1 C 98 % 49 % 1011,3 hPa 0,0 l/m W-SW 243 0 min 0,0 km/h (0 Bft)
25.07.2021 03:55 17,1 C 98 % 49 % 1010,2 hPa 0,0 l/m W-SW 244 0 min 0,0 km/h (0 Bft)
25.07.2021 03:50 17,0 C 98 % 48 % 1010,2 hPa 0,0 l/m W 273 0 min 0,0 km/h (0 Bft)
25.07.2021 03:45 17,0 C 98 % 48 % 1010,2 hPa 0,0 l/m N 3 0 min 0,0 km/h (0 Bft)
25.07.2021 03:40 17,1 C 98 % 47 % 1011,3 hPa 0,0 l/m NO 46 0 min 0,0 km/h (0 Bft)
25.07.2021 03:35 17,0 C 99 % 46 % 1011,3 hPa 0,0 l/m N 10 0 min 0,0 km/h (0 Bft)
25.07.2021 03:30 17,0 C 98 % 46 % 1011,3 hPa 0,0 l/m W-SW 252 0 min 0,0 km/h (0 Bft)
25.07.2021 03:25 17,0 C 99 % 46 % 1011,3 hPa 0,0 l/m W-SW 252 0 min 0,0 km/h (0 Bft)
25.07.2021 03:20 16,9 C 99 % 45 % 1011,3 hPa 0,0 l/m W-SW 252 0 min 0,0 km/h (0 Bft)
25.07.2021 03:15 16,8 C 99 % 45 % 1011,3 hPa 0,0 l/m W-SW 252 0 min 0,0 km/h (0 Bft)
25.07.2021 03:10 16,8 C 98 % 45 % 1011,3 hPa 0,0 l/m W-SW 252 0 min 0,0 km/h (0 Bft)
25.07.2021 03:05 16,8 C 98 % 44 % 1011,3 hPa 0,0 l/m W-SW 252 0 min 0,0 km/h (0 Bft)
25.07.2021 03:00 16,9 C 99 % 44 % 1011,3 hPa 0,0 l/m W-SW 252 0 min 0,0 km/h (0 Bft)
25.07.2021 02:55 17,1 C 99 % 44 % 1011,3 hPa 0,0 l/m W-SW 253 0 min 0,0 km/h (0 Bft)
25.07.2021 02:50 17,2 C 99 % 45 % 1011,2 hPa 0,0 l/m W 263 0 min 0,0 km/h (0 Bft)
25.07.2021 02:45 17,2 C 99 % 44 % 1011,2 hPa 0,0 l/m S-SO 150 0 min 0,0 km/h (0 Bft)
25.07.2021 02:40 17,2 C 99 % 44 % 1011,2 hPa 0,0 l/m O-SO 113 0 min 0,0 km/h (0 Bft)
25.07.2021 02:35 17,1 C 99 % 45 % 1011,3 hPa 0,0 l/m S 190 0 min 0,0 km/h (0 Bft)
25.07.2021 02:30 17,0 C 99 % 45 % 1011,3 hPa 0,0 l/m S 171 0 min 0,0 km/h (0 Bft)
25.07.2021 02:25 16,8 C 99 % 45 % 1011,3 hPa 0,0 l/m S-SW 198 0 min 0,0 km/h (0 Bft)
25.07.2021 02:20 16,6 C 98 % 45 % 1011,3 hPa 0,0 l/m S-SW 198 0 min 0,0 km/h (0 Bft)
25.07.2021 02:15 16,6 C 98 % 45 % 1011,3 hPa 0,0 l/m S-SW 198 0 min 0,0 km/h (0 Bft)
25.07.2021 02:10 16,7 C 98 % 44 % 1010,3 hPa 0,0 l/m S-SW 199 0 min 0,0 km/h (0 Bft)
25.07.2021 02:05 16,7 C 98 % 44 % 1010,3 hPa 0,0 l/m S 172 0 min 0,0 km/h (0 Bft)
25.07.2021 02:00 16,7 C 98 % 43 % 1010,3 hPa 0,0 l/m SO 146 0 min 0,0 km/h (0 Bft)
25.07.2021 01:55 16,8 C 98 % 43 % 1011,3 hPa 0,0 l/m SO 144 0 min 0,0 km/h (0 Bft)
25.07.2021 01:50 16,9 C 98 % 43 % 1011,3 hPa 0,0 l/m SO 144 0 min 0,0 km/h (0 Bft)
25.07.2021 01:45 17,0 C 98 % 43 % 1011,3 hPa 0,0 l/m S-SO 151 0 min 0,0 km/h (0 Bft)
25.07.2021 01:40 17,0 C 98 % 43 % 1011,3 hPa 0,0 l/m SO 134 0 min 0,0 km/h (0 Bft)
25.07.2021 01:35 17,0 C 98 % 44 % 1011,3 hPa 0,0 l/m SO 143 0 min 0,0 km/h (0 Bft)
25.07.2021 01:30 16,9 C 98 % 44 % 1011,3 hPa 0,0 l/m S-SO 157 0 min 0,0 km/h (0 Bft)
25.07.2021 01:25 17,0 C 98 % 44 % 1011,3 hPa 0,0 l/m S-SO 155 0 min 0,0 km/h (0 Bft)
25.07.2021 01:20 17,0 C 98 % 44 % 1011,3 hPa 0,0 l/m S-SO 165 0 min 0,0 km/h (0 Bft)
25.07.2021 01:15 17,0 C 98 % 44 % 1011,3 hPa 0,0 l/m SO 133 0 min 0,0 km/h (0 Bft)
25.07.2021 01:10 16,9 C 98 % 44 % 1011,3 hPa 0,0 l/m SO 133 0 min 0,0 km/h (0 Bft)
25.07.2021 01:05 16,9 C 98 % 44 % 1011,3 hPa 0,0 l/m S 171 0 min 5,2 km/h (1 Bft)
25.07.2021 01:00 16,9 C 97 % 44 % 1011,3 hPa 0,0 l/m S-SO 165 0 min 0,0 km/h (0 Bft)
25.07.2021 00:55 17,0 C 97 % 44 % 1011,3 hPa 0,0 l/m S 172 0 min 0,0 km/h (0 Bft)
25.07.2021 00:50 17,1 C 97 % 43 % 1011,3 hPa 0,0 l/m S-SO 157 0 min 0,0 km/h (0 Bft)
25.07.2021 00:45 17,2 C 97 % 43 % 1011,2 hPa 0,0 l/m SO 134 0 min 0,0 km/h (0 Bft)
25.07.2021 00:40 17,3 C 97 % 43 % 1011,2 hPa 0,0 l/m SO 135 0 min 5,2 km/h (1 Bft)
25.07.2021 00:35 17,4 C 96 % 43 % 1011,2 hPa 0,0 l/m O-NO 64 0 min 6,9 km/h (2 Bft)
25.07.2021 00:30 17,4 C 96 % 43 % 1011,2 hPa 0,0 l/m S-SO 160 0 min 0,0 km/h (0 Bft)
25.07.2021 00:25 17,3 C 96 % 43 % 1011,2 hPa 0,0 l/m S-SO 149 0 min 0,0 km/h (0 Bft)
25.07.2021 00:20 17,3 C 95 % 43 % 1011,2 hPa 0,0 l/m SO 144 0 min 0,0 km/h (0 Bft)
25.07.2021 00:15 17,2 C 95 % 42 % 1011,2 hPa 0,0 l/m SO 141 0 min 0,0 km/h (0 Bft)
25.07.2021 00:10 17,2 C 95 % 42 % 1011,2 hPa 0,0 l/m SO 141 0 min 0,0 km/h (0 Bft)
25.07.2021 00:05 17,1 C 95 % 41 % 1011,3 hPa 0,0 l/m S-SO 168 0 min 0,0 km/h (0 Bft)
25.07.2021 00:00 17,0 C 94 % 41 % 1011,3 hPa 0,0 l/m SO 136 0 min 0,0 km/h (0 Bft)
_ Min-Zeit 06:00 16:15 - 03:55 - - - - 00:00
Minimum _ 16,5 C 32 % - 1010,2 hPa - - - - 0,0 km/h (0 Bft)
_ Max-Zeit 16:00 07:50 10:40 07:30 00:00 - - 06:00 16:20
Maximum _ 26,9 C 100 % 100 % 1012,2 hPa 0,0 l/m - - 5 min 14,7 km/h
O-SO (3 Bft)
Durchschnitt _ 20,8 C 74 % #10:40 h 1011,0 hPa #0,0 l/m SO - #10:40 h 0,9 km/h (0 Bft)